createdAt,value
2022-12-18T00:01:34.154Z,16.87
2022-12-18T00:04:03.926Z,16.38
2022-12-18T00:06:33.646Z,15.85
2022-12-18T00:09:02.519Z,23.17
2022-12-18T00:11:32.980Z,33.80
2022-12-18T00:14:02.103Z,18.07
2022-12-18T00:16:40.443Z,16.20
2022-12-18T00:19:12.527Z,15.63
2022-12-18T00:21:42.030Z,14.40
2022-12-18T00:24:11.598Z,14.55
2022-12-18T00:26:41.485Z,14.70
2022-12-18T00:29:14.733Z,14.35
2022-12-18T00:31:49.613Z,13.82
2022-12-18T00:34:18.808Z,14.07
2022-12-18T00:36:54.705Z,12.75
2022-12-18T00:39:24.097Z,13.07
2022-12-18T00:42:12.166Z,13.93
2022-12-18T00:44:40.737Z,12.70
2022-12-18T00:47:10.210Z,12.35
2022-12-18T00:49:38.721Z,13.43
2022-12-18T00:52:07.326Z,13.90
2022-12-18T00:54:35.754Z,11.05
2022-12-18T00:57:04.341Z,12.75
2022-12-18T00:59:32.769Z,13.98
2022-12-18T01:02:01.681Z,15.05
2022-12-18T01:04:33.361Z,17.10
2022-12-18T01:07:02.494Z,16.98
2022-12-18T01:09:31.037Z,17.55
2022-12-18T01:11:59.431Z,17.67
2022-12-18T01:14:27.912Z,16.58
2022-12-18T01:16:56.344Z,17.57
2022-12-18T01:19:24.911Z,16.50
2022-12-18T01:21:54.434Z,15.23
2022-12-18T01:24:22.954Z,13.25
2022-12-18T01:26:51.532Z,14.00
2022-12-18T01:29:20.029Z,12.37
2022-12-18T01:31:48.566Z,12.63
2022-12-18T01:34:17.203Z,12.73
2022-12-18T01:36:45.792Z,14.18
2022-12-18T01:39:17.031Z,14.98
2022-12-18T01:42:03.769Z,12.83
2022-12-18T01:45:02.149Z,14.30
2022-12-18T01:47:35.398Z,14.80
2022-12-18T01:50:08.495Z,14.77
2022-12-18T01:52:39.234Z,13.48
2022-12-18T01:55:10.824Z,14.17
2022-12-18T01:57:40.008Z,13.25
2022-12-18T02:00:12.538Z,14.38
2022-12-18T02:02:45.029Z,13.88
2022-12-18T02:05:17.197Z,13.57
2022-12-18T02:07:53.887Z,14.83
2022-12-18T02:10:29.926Z,15.45
2022-12-18T02:13:06.364Z,14.95
2022-12-18T02:15:38.666Z,13.02
2022-12-18T02:18:10.836Z,13.45
2022-12-18T02:20:46.096Z,13.53
2022-12-18T02:23:26.371Z,13.90
2022-12-18T02:26:17.460Z,14.82
2022-12-18T02:28:49.009Z,14.80
2022-12-18T02:31:24.359Z,13.38
2022-12-18T02:33:57.335Z,13.27
2022-12-18T02:36:27.225Z,13.15
2022-12-18T02:38:58.664Z,12.85
2022-12-18T02:41:30.262Z,12.27
2022-12-18T02:44:00.356Z,14.98
2022-12-18T02:46:34.439Z,12.93
2022-12-18T02:49:16.593Z,13.63
2022-12-18T02:51:54.160Z,13.18
2022-12-18T02:54:44.704Z,11.50
2022-12-18T02:57:21.672Z,13.23
2022-12-18T03:00:00.026Z,13.40
2022-12-18T03:02:36.015Z,12.48
2022-12-18T03:05:11.685Z,12.68
2022-12-18T03:07:45.614Z,14.15
2022-12-18T03:10:20.642Z,12.50
2022-12-18T03:12:55.611Z,12.70
2022-12-18T03:15:30.131Z,12.48
2022-12-18T03:18:11.445Z,12.52
2022-12-18T03:20:44.494Z,10.95
2022-12-18T03:23:20.767Z,12.45
2022-12-18T03:25:55.116Z,11.30
2022-12-18T03:28:26.722Z,11.23
2022-12-18T03:31:04.450Z,11.55
2022-12-18T03:33:39.075Z,10.85
2022-12-18T03:36:08.119Z,10.32
2022-12-18T03:38:36.520Z,10.50
2022-12-18T03:41:13.050Z,11.30
2022-12-18T03:44:08.579Z,10.70
2022-12-18T03:46:49.462Z,11.20
2022-12-18T03:49:27.360Z,10.38
2022-12-18T03:52:04.192Z,10.07
2022-12-18T03:54:33.187Z,10.52
2022-12-18T03:57:14.785Z,10.88
2022-12-18T03:59:49.093Z,11.38
2022-12-18T04:02:20.965Z,10.50
2022-12-18T04:04:53.308Z,11.03
2022-12-18T04:07:22.494Z,10.70
2022-12-18T04:09:54.499Z,10.60
2022-12-18T04:12:27.084Z,10.80
2022-12-18T04:14:57.033Z,10.68
2022-12-18T04:17:26.181Z,11.27
2022-12-18T04:19:54.999Z,11.57
2022-12-18T04:22:25.082Z,11.50
2022-12-18T04:25:07.338Z,11.60
2022-12-18T04:27:41.742Z,10.65
2022-12-18T04:30:13.103Z,12.93
2022-12-18T04:32:41.797Z,10.50
2022-12-18T04:35:12.970Z,12.63
2022-12-18T04:37:44.855Z,12.70
2022-12-18T04:40:14.434Z,11.23
2022-12-18T04:42:46.116Z,12.23
2022-12-18T04:45:15.873Z,12.73
2022-12-18T04:47:44.378Z,11.82
2022-12-18T04:50:12.999Z,12.23
2022-12-18T04:52:41.754Z,10.95
2022-12-18T04:55:10.641Z,10.73
2022-12-18T04:57:39.113Z,11.48
2022-12-18T05:00:08.922Z,12.38
2022-12-18T05:03:07.346Z,12.63
2022-12-18T05:05:36.923Z,11.68
2022-12-18T05:08:05.448Z,11.93
2022-12-18T05:10:37.918Z,12.25
2022-12-18T05:13:06.791Z,11.93
2022-12-18T05:15:35.677Z,12.65
2022-12-18T05:18:06.123Z,12.30
2022-12-18T05:20:34.627Z,11.97
2022-12-18T05:23:03.148Z,11.80
2022-12-18T05:25:31.570Z,10.35
2022-12-18T05:28:00.084Z,11.48
2022-12-18T05:30:28.723Z,10.65
2022-12-18T05:32:57.125Z,10.90
2022-12-18T05:35:26.862Z,11.57
2022-12-18T05:37:55.852Z,10.80
2022-12-18T05:40:24.239Z,11.50
2022-12-18T05:42:52.963Z,11.88
2022-12-18T05:45:21.413Z,12.10
2022-12-18T05:47:49.770Z,11.27
2022-12-18T05:50:18.201Z,11.38
2022-12-18T05:52:47.707Z,12.38
2022-12-18T05:55:16.165Z,12.38
2022-12-18T05:57:44.561Z,11.67
2022-12-18T06:00:14.016Z,13.13
2022-12-18T06:02:42.516Z,10.98
2022-12-18T06:05:11.893Z,12.40
2022-12-18T06:07:40.304Z,12.23
2022-12-18T06:10:10.358Z,12.07
2022-12-18T06:12:38.750Z,11.30
2022-12-18T06:15:07.792Z,12.05
2022-12-18T06:17:36.456Z,11.93
2022-12-18T06:20:04.980Z,11.77
2022-12-18T06:22:33.536Z,12.20
2022-12-18T06:25:01.972Z,10.82
2022-12-18T06:27:31.486Z,12.43
2022-12-18T06:29:59.874Z,12.75
2022-12-18T06:32:28.351Z,12.98
2022-12-18T06:34:57.128Z,11.23
2022-12-18T06:37:27.059Z,12.98
2022-12-18T06:39:55.397Z,13.32
2022-12-18T06:42:24.883Z,12.90
2022-12-18T06:44:54.653Z,13.32
2022-12-18T06:47:23.024Z,11.37
2022-12-18T06:49:51.385Z,13.13
2022-12-18T06:52:19.730Z,12.77
2022-12-18T06:54:48.211Z,12.00
2022-12-18T06:57:16.618Z,11.38
2022-12-18T06:59:45.608Z,12.37
2022-12-18T07:02:15.594Z,11.63
2022-12-18T07:04:44.264Z,11.68
2022-12-18T07:07:12.736Z,10.02
2022-12-18T07:09:41.315Z,10.73
2022-12-18T07:12:09.703Z,11.23
2022-12-18T07:14:38.172Z,11.35
2022-12-18T07:17:06.815Z,10.43
2022-12-18T07:19:36.738Z,9.13
2022-12-18T07:22:05.279Z,9.65
2022-12-18T07:24:35.423Z,10.73
2022-12-18T07:27:04.747Z,11.68
2022-12-18T07:29:33.361Z,10.85
2022-12-18T07:32:01.792Z,11.82
2022-12-18T07:34:30.275Z,10.73
2022-12-18T07:36:59.712Z,10.80
2022-12-18T07:39:28.114Z,11.23
2022-12-18T07:42:14.102Z,11.50
2022-12-18T07:44:42.554Z,11.30
2022-12-18T07:47:12.371Z,10.63
2022-12-18T07:49:40.843Z,9.70
2022-12-18T07:52:10.519Z,11.20
2022-12-18T07:54:43.928Z,9.77
2022-12-18T07:57:27.318Z,11.00
2022-12-18T08:00:01.193Z,10.10
2022-12-18T08:02:29.685Z,10.60
2022-12-18T08:04:58.254Z,9.05
2022-12-18T08:07:27.674Z,10.90
2022-12-18T08:09:56.069Z,10.35
2022-12-18T08:12:24.536Z,10.30
2022-12-18T08:14:52.900Z,9.50
2022-12-18T08:17:22.229Z,9.20
2022-12-18T08:19:50.661Z,10.10
2022-12-18T08:22:19.037Z,9.75
2022-12-18T08:24:48.751Z,11.38
2022-12-18T08:27:32.493Z,11.23
2022-12-18T08:30:00.953Z,11.18
2022-12-18T08:32:29.771Z,10.98
2022-12-18T08:34:58.245Z,10.52
2022-12-18T08:37:26.847Z,11.13
2022-12-18T08:39:56.455Z,10.83
2022-12-18T08:42:42.521Z,11.07
2022-12-18T08:45:11.198Z,11.07
2022-12-18T08:47:39.523Z,10.63
2022-12-18T08:50:08.145Z,10.25
2022-12-18T08:52:36.505Z,11.03
2022-12-18T08:55:07.030Z,11.85
2022-12-18T08:57:35.393Z,12.57
2022-12-18T09:00:03.793Z,12.80
2022-12-18T09:02:32.342Z,11.13
2022-12-18T09:05:00.793Z,12.33
2022-12-18T09:07:29.172Z,11.75
2022-12-18T09:09:57.435Z,10.90
2022-12-18T09:12:27.365Z,11.45
2022-12-18T09:14:55.828Z,11.88
2022-12-18T09:17:24.551Z,12.03
2022-12-18T09:19:53.187Z,12.68
2022-12-18T09:22:21.596Z,12.55
2022-12-18T09:24:51.147Z,12.27
2022-12-18T09:27:19.558Z,11.68
2022-12-18T09:29:49.823Z,11.17
2022-12-18T09:32:22.319Z,11.02
2022-12-18T09:34:51.278Z,12.57
2022-12-18T09:37:19.651Z,12.65
2022-12-18T09:39:48.074Z,12.43
2022-12-18T09:42:21.859Z,12.60
2022-12-18T09:44:52.983Z,12.55
2022-12-18T09:47:24.711Z,13.10
2022-12-18T09:49:56.059Z,13.07
2022-12-18T09:52:28.642Z,12.82
2022-12-18T09:55:02.194Z,12.43
2022-12-18T09:57:35.762Z,12.73
2022-12-18T10:00:13.781Z,12.73
2022-12-18T10:02:45.421Z,12.98
2022-12-18T10:05:16.419Z,11.98
2022-12-18T10:07:55.542Z,11.77
2022-12-18T10:10:41.901Z,12.52
2022-12-18T10:13:20.332Z,11.45
2022-12-18T10:16:11.599Z,10.52
2022-12-18T10:19:01.194Z,12.18
2022-12-18T10:21:35.828Z,12.53
2022-12-18T10:24:17.597Z,13.20
2022-12-18T10:26:46.464Z,11.68
2022-12-18T10:29:16.804Z,11.23
2022-12-18T10:31:46.428Z,12.75
2022-12-18T10:34:15.138Z,10.30
2022-12-18T10:36:43.997Z,10.80
2022-12-18T10:39:21.277Z,10.95
2022-12-18T10:41:49.992Z,12.52
2022-12-18T10:44:23.458Z,9.93
2022-12-18T10:46:59.109Z,11.47
2022-12-18T10:49:33.672Z,10.75
2022-12-18T10:52:16.285Z,11.50
2022-12-18T10:54:50.843Z,12.98
2022-12-18T10:57:31.982Z,12.23
2022-12-18T11:00:03.606Z,12.07
2022-12-18T11:02:37.634Z,11.48
2022-12-18T11:05:30.464Z,11.60
2022-12-18T11:08:00.087Z,11.65
2022-12-18T11:10:35.112Z,11.75
2022-12-18T11:13:18.964Z,12.67
2022-12-18T11:15:47.758Z,11.18
2022-12-18T11:18:24.810Z,11.63
2022-12-18T11:20:58.501Z,12.05
2022-12-18T11:23:28.088Z,11.90
2022-12-18T11:25:59.807Z,11.47
2022-12-18T11:28:39.221Z,13.35
2022-12-18T11:31:24.061Z,12.43
2022-12-18T11:36:58.241Z,11.35
2022-12-18T11:39:36.177Z,11.77
2022-12-18T11:42:12.340Z,12.02
2022-12-18T11:44:49.099Z,10.63
2022-12-18T11:47:27.820Z,13.13
2022-12-18T11:49:58.680Z,12.02
2022-12-18T11:52:30.505Z,12.00
2022-12-18T11:55:03.945Z,12.07
2022-12-18T11:57:40.948Z,12.70
2022-12-18T12:00:17.757Z,12.52
2022-12-18T12:03:09.263Z,11.32
2022-12-18T12:05:53.671Z,11.17
2022-12-18T12:08:31.499Z,15.30
2022-12-18T12:11:08.160Z,13.13
2022-12-18T12:13:49.435Z,11.90
2022-12-18T12:16:22.016Z,12.20
2022-12-18T12:19:02.875Z,11.10
2022-12-18T12:21:40.575Z,11.32
2022-12-18T12:24:22.897Z,11.32
2022-12-18T12:33:41.803Z,11.87
2022-12-18T12:36:22.863Z,10.43
2022-12-18T12:38:56.822Z,10.43
2022-12-18T12:41:45.001Z,12.70
2022-12-18T12:44:20.651Z,11.43
2022-12-18T12:46:51.437Z,11.43
2022-12-18T12:52:17.147Z,12.10
2022-12-18T12:54:50.383Z,12.13
2022-12-18T12:57:25.111Z,12.50
2022-12-18T13:00:04.376Z,10.93
2022-12-18T13:02:39.666Z,10.68
2022-12-18T13:05:18.020Z,10.85
2022-12-18T13:07:52.605Z,10.93
2022-12-18T13:10:34.923Z,12.43
2022-12-18T13:13:05.750Z,11.37
2022-12-18T13:13:43.520Z,12.10
2022-12-18T13:15:41.162Z,10.75
2022-12-18T13:18:19.149Z,10.30
2022-12-18T13:20:58.574Z,12.23
2022-12-18T13:23:40.078Z,10.80
2022-12-18T13:26:35.512Z,11.43
2022-12-18T13:29:05.347Z,10.07
2022-12-18T13:32:10.427Z,11.52
2022-12-18T13:34:39.232Z,9.85
2022-12-18T13:37:44.944Z,13.00
2022-12-18T13:40:57.036Z,10.33
2022-12-18T13:43:51.061Z,10.38
2022-12-18T13:46:30.735Z,9.82
2022-12-18T13:49:04.433Z,9.40
2022-12-18T13:51:35.740Z,13.98
2022-12-18T13:54:16.012Z,21.23
2022-12-18T13:56:47.466Z,14.18
2022-12-18T13:59:23.303Z,11.10
2022-12-18T14:01:56.491Z,10.88
2022-12-18T14:04:28.404Z,10.20
2022-12-18T14:07:00.952Z,9.70
2022-12-18T14:09:35.609Z,10.68
2022-12-18T14:12:24.667Z,10.98
2022-12-18T14:14:56.590Z,9.93
2022-12-18T14:17:25.394Z,11.13
2022-12-18T14:19:54.705Z,10.97
2022-12-18T14:22:28.898Z,11.23
2022-12-18T14:25:16.575Z,11.13
2022-12-18T14:27:46.929Z,10.98
2022-12-18T14:30:44.450Z,11.73
2022-12-18T14:33:18.976Z,12.40
2022-12-18T14:35:56.574Z,11.13
2022-12-18T14:38:34.042Z,9.75
2022-12-18T14:41:04.110Z,11.00
2022-12-18T14:43:35.148Z,11.40
2022-12-18T14:46:27.910Z,11.13
2022-12-18T14:48:59.850Z,12.10
2022-12-18T14:51:30.188Z,10.70
2022-12-18T14:54:01.382Z,9.85
2022-12-18T14:56:31.854Z,9.75
2022-12-18T20:39:19.552Z,18.75
2022-12-18T20:41:50.962Z,15.90
2022-12-18T20:44:22.616Z,16.33
2022-12-18T20:46:53.838Z,15.38
2022-12-18T20:49:22.279Z,15.40
2022-12-18T20:51:57.679Z,17.15
2022-12-18T20:54:28.934Z,15.10
2022-12-18T20:56:57.813Z,14.80
2022-12-18T20:59:26.551Z,15.68
2022-12-18T21:01:55.222Z,15.88
2022-12-18T21:04:24.249Z,13.98
2022-12-18T21:06:56.792Z,14.73
2022-12-18T21:09:37.985Z,16.10
2022-12-18T21:12:25.740Z,14.75
2022-12-18T21:15:28.980Z,15.50
2022-12-18T21:17:58.177Z,13.27
2022-12-18T21:20:33.455Z,39.13
2022-12-18T21:23:25.421Z,32.38
2022-12-18T21:26:11.885Z,15.55
2022-12-18T21:29:20.110Z,16.13
2022-12-18T21:31:50.332Z,15.23
2022-12-18T21:34:22.040Z,15.63
2022-12-18T21:36:57.268Z,16.17
2022-12-18T21:39:38.060Z,16.63
2022-12-18T21:42:27.631Z,16.35
2022-12-18T21:45:03.126Z,15.93
2022-12-18T21:47:32.069Z,16.93
2022-12-18T21:50:22.975Z,15.95
2022-12-18T21:52:55.377Z,17.63
2022-12-18T21:55:23.998Z,15.75
2022-12-18T21:58:09.426Z,15.70
2022-12-18T22:00:38.362Z,16.00
2022-12-18T22:03:17.371Z,15.93
2022-12-18T22:05:50.596Z,16.25
2022-12-18T22:08:39.524Z,14.65
2022-12-18T22:11:14.334Z,14.98
2022-12-18T22:13:45.543Z,16.23
2022-12-18T22:16:14.086Z,16.30
2022-12-18T22:18:42.669Z,15.43
2022-12-18T22:21:28.653Z,15.48
2022-12-18T22:23:59.334Z,14.88
2022-12-18T22:26:39.481Z,15.30
2022-12-18T22:29:31.621Z,15.75
2022-12-18T22:32:02.129Z,14.40
2022-12-18T22:34:34.490Z,15.68
2022-12-18T22:37:05.288Z,15.82
2022-12-18T22:39:33.868Z,15.93
2022-12-18T22:42:11.328Z,14.68
2022-12-18T22:44:40.852Z,15.15
2022-12-18T22:47:11.295Z,15.50
2022-12-18T22:49:39.917Z,15.77
2022-12-18T22:52:09.555Z,16.10
2022-12-18T22:54:39.777Z,14.85
2022-12-18T22:57:08.230Z,16.45
2022-12-18T22:59:36.808Z,15.73
2022-12-18T23:02:06.581Z,16.17
2022-12-18T23:04:36.449Z,16.77
2022-12-18T23:07:05.449Z,15.93
2022-12-18T23:09:34.591Z,16.40
2022-12-18T23:12:03.200Z,17.23
2022-12-18T23:14:36.390Z,15.32
2022-12-18T23:17:12.247Z,16.07
2022-12-18T23:19:48.570Z,16.27
2022-12-18T23:22:17.451Z,14.55
2022-12-18T23:24:46.310Z,17.20
2022-12-18T23:27:14.753Z,15.68
2022-12-18T23:29:44.674Z,17.23
2022-12-18T23:32:14.648Z,16.02
2022-12-18T23:34:44.332Z,16.85
2022-12-18T23:37:13.015Z,15.15
2022-12-18T23:39:42.006Z,16.08
2022-12-18T23:42:10.475Z,17.27
2022-12-18T23:44:41.660Z,15.73
2022-12-18T23:47:10.085Z,16.48
2022-12-18T23:49:38.576Z,17.17
2022-12-18T23:52:08.333Z,17.85
2022-12-18T23:54:36.754Z,16.60
2022-12-18T23:57:05.152Z,16.23
2022-12-18T23:59:33.537Z,16.10
